Time;durP1;ratioP1;P1;durP2;ratioP2;P2;SDS_P1;SDS_P2;PMS_P1;PMS_P2;Temp;Humidity;BMP_temperature;BMP_pressure;BME280_temperature;BME280_humidity;BME280_pressure;Samples;Min_cycle;Max_cycle;Signal;HPM_P1;HPM_P2
2022/11/30 00:01:17;;;;;;;29.95;22.17;;;;;;;1.72;100.00;93135.88;5092068;28;20527;-70
2022/11/30 00:03:45;;;;;;;36.78;26.23;;;;;;;1.76;100.00;93143.94;5092055;28;20101;-70
2022/11/30 00:06:13;;;;;;;35.72;26.13;;;;;;;1.73;100.00;93129.09;5091962;28;20518;-70
2022/11/30 00:08:40;;;;;;;39.72;27.63;;;;;;;1.82;100.00;93134.94;5091901;28;20084;-70
2022/11/30 00:11:11;;;;;;;29.13;22.42;;;;;;;1.73;100.00;93129.09;5092055;28;20048;-70
2022/11/30 00:13:38;;;;;;;31.58;24.73;;;;;;;1.86;100.00;93137.00;5091774;28;20048;-70
2022/11/30 00:16:07;;;;;;;28.80;22.77;;;;;;;1.71;100.00;93128.47;5091777;28;20044;-70
2022/11/30 00:18:33;;;;;;;29.15;20.92;;;;;;;1.77;100.00;93142.22;5091966;28;20070;-70
2022/11/30 00:21:01;;;;;;;25.25;19.73;;;;;;;1.87;100.00;93138.56;5092050;28;20075;-70
2022/11/30 00:23:32;;;;;;;24.02;19.42;;;;;;;1.89;100.00;93127.50;5091976;28;20131;-70
2022/11/30 00:26:01;;;;;;;23.63;19.58;;;;;;;1.98;100.00;93137.47;5091537;28;20048;-70
2022/11/30 00:28:28;;;;;;;24.40;18.67;;;;;;;1.99;100.00;93128.16;5091621;28;20565;-69
2022/11/30 00:30:58;;;;;;;24.95;19.50;;;;;;;2.09;100.00;93128.75;5091350;28;20086;-70
2022/11/30 00:33:26;;;;;;;25.90;20.08;;;;;;;1.92;100.00;93130.50;5091488;28;20048;-70
2022/11/30 00:35:57;;;;;;;24.63;18.55;;;;;;;2.11;100.00;93136.19;5091060;28;20048;-70
2022/11/30 00:38:24;;;;;;;26.90;19.15;;;;;;;2.13;100.00;93121.66;5091477;28;20136;-70
2022/11/30 00:40:51;;;;;;;23.85;18.85;;;;;;;1.94;100.00;93128.59;5091707;28;20167;-70
2022/11/30 00:43:17;;;;;;;32.80;22.30;;;;;;;2.03;100.00;93126.09;5091287;28;20059;-70
2022/11/30 00:45:44;;;;;;;29.33;17.48;;;;;;;2.08;100.00;93117.03;5091568;28;20117;-70
2022/11/30 00:48:11;;;;;;;20.65;15.73;;;;;;;2.14;100.00;93125.75;5091790;28;20051;-70
2022/11/30 00:50:39;;;;;;;27.13;16.98;;;;;;;2.24;100.00;93128.91;5091431;28;20128;-70
2022/11/30 00:53:06;;;;;;;22.73;15.45;;;;;;;2.33;100.00;93122.09;5091156;28;20052;-71
2022/11/30 00:55:32;;;;;;;17.90;12.90;;;;;;;2.20;100.00;93116.72;5091159;28;20048;-73
2022/11/30 00:57:59;;;;;;;16.77;11.82;;;;;;;2.11;100.00;93108.31;5091467;28;20048;-72
2022/11/30 01:00:26;;;;;;;11.25;8.45;;;;;;;1.94;100.00;93115.94;5091011;28;20098;-70
2022/11/30 01:02:53;;;;;;;11.07;9.15;;;;;;;2.00;100.00;93099.31;5091415;28;20462;-70
2022/11/30 01:05:20;;;;;;;10.68;8.32;;;;;;;1.87;100.00;93104.88;5091136;28;20101;-70
2022/11/30 01:07:48;;;;;;;10.23;7.97;;;;;;;1.83;100.00;93106.13;5090792;28;20614;-70
2022/11/30 01:10:15;;;;;;;9.60;7.78;;;;;;;1.84;100.00;93089.97;5090811;28;20492;-70
2022/11/30 01:12:42;;;;;;;14.20;8.45;;;;;;;1.81;100.00;93102.97;5090724;28;20052;-70
2022/11/30 01:15:09;;;;;;;8.90;7.50;;;;;;;1.73;100.00;93086.03;5090793;28;20393;-70
2022/11/30 01:17:36;;;;;;;9.20;7.20;;;;;;;1.79;100.00;93087.13;5091152;28;20048;-71
2022/11/30 01:20:03;;;;;;;8.35;7.00;;;;;;;1.83;100.00;93080.78;5090740;28;20581;-71
2022/11/30 01:22:29;;;;;;;13.43;8.40;;;;;;;1.69;100.00;93055.19;5090887;28;20084;-72
2022/11/30 01:24:58;;;;;;;33.45;24.63;;;;;;;2.08;100.00;93089.16;5090584;28;20079;-71
2022/11/30 01:27:24;;;;;;;23.73;10.38;;;;;;;2.08;100.00;93090.94;5090801;28;20047;-72
2022/11/30 01:29:51;;;;;;;21.80;16.20;;;;;;;2.27;100.00;93082.97;5089710;28;20867;-72
2022/11/30 01:32:18;;;;;;;22.33;9.88;;;;;;;2.37;100.00;93094.69;5090397;28;20044;-71
2022/11/30 01:34:44;;;;;;;7.15;5.72;;;;;;;2.33;100.00;93089.16;5089900;28;20047;-71
2022/11/30 01:37:11;;;;;;;11.30;7.53;;;;;;;2.29;100.00;93075.19;5089321;28;20869;-72
2022/11/30 01:39:38;;;;;;;74.97;39.75;;;;;;;2.42;100.00;93084.03;5088250;28;20047;-72
2022/11/30 01:42:06;;;;;;;13.55;8.80;;;;;;;2.54;100.00;93075.13;5090072;28;20090;-72
2022/11/30 01:44:54;;;;;;;12.02;7.60;;;;;;;2.64;100.00;93080.78;5090082;28;20048;-72
2022/11/30 01:47:26;;;;;;;7.35;5.05;;;;;;;2.66;100.00;93078.91;5089210;28;20160;-72
2022/11/30 01:49:57;;;;;;;95.68;45.92;;;;;;;2.57;100.00;93049.44;5089274;28;20573;-73
2022/11/30 01:52:27;;;;;;;12.05;7.93;;;;;;;2.57;100.00;93041.84;5090342;28;20048;-71
2022/11/30 01:54:58;;;;;;;64.20;34.58;;;;;;;2.88;100.00;93061.34;5089380;28;20558;-72
2022/11/30 01:57:34;;;;;;;53.53;30.65;;;;;;;2.91;100.00;93071.19;5088072;28;20085;-72
2022/11/30 02:00:01;;;;;;;;;;;;;;;3.00;100.00;93063.53;5090561;28;20052;-72
2022/11/30 02:02:35;;;;;;;36.58;20.10;;;;;;;2.93;100.00;93068.50;5089644;28;19924;-72
2022/11/30 02:05:02;;;;;;;123.50;65.18;;;;;;;3.02;100.00;93064.16;5089412;28;20094;-72
2022/11/30 02:07:29;;;;;;;19.35;11.23;;;;;;;2.94;100.00;93054.84;5089881;28;20084;-72
2022/11/30 02:09:55;;;;;;;9.48;6.07;;;;;;;3.09;100.00;93054.91;5090128;28;20075;-72
2022/11/30 02:12:32;;;;;;;18.55;10.82;;;;;;;3.12;100.00;93056.31;5089698;28;20093;-72
2022/11/30 02:15:04;;;;;;;173.40;85.10;;;;;;;3.12;100.00;93057.13;5090271;28;20056;-72
2022/11/30 02:17:39;;;;;;;72.80;38.10;;;;;;;3.19;100.00;93063.09;5089925;28;20048;-72
2022/11/30 02:20:33;;;;;;;19.20;10.18;;;;;;;3.20;100.00;93062.16;5090227;28;20496;-72
2022/11/30 02:23:40;;;;;;;288.73;143.55;;;;;;;3.21;100.00;93060.41;5089510;28;20052;-73
2022/11/30 02:26:20;;;;;;;57.33;30.63;;;;;;;3.23;100.00;93060.25;5007467;28;20061;-72
2022/11/30 02:29:11;;;;;;;5.63;4.05;;;;;;;2.92;100.00;93069.44;5007650;28;20104;-73
2022/11/30 02:31:44;;;;;;;8.07;5.25;;;;;;;2.65;100.00;93048.63;5053424;28;20059;-72
2022/11/30 02:34:15;;;;;;;18.70;10.20;;;;;;;2.94;100.00;93035.34;5089781;28;20048;-73
2022/11/30 02:36:44;;;;;;;55.63;28.35;;;;;;;2.94;100.00;93045.50;5089996;28;20047;-73
2022/11/30 02:39:11;;;;;;;47.53;25.15;;;;;;;2.91;100.00;93048.34;5089498;28;20052;-73
2022/11/30 02:41:40;;;;;;;13.43;7.53;;;;;;;2.88;100.00;93023.31;5089646;28;20047;-73
2022/11/30 02:44:11;;;;;;;81.20;43.58;;;;;;;2.93;100.00;93050.72;5089857;28;20469;-73
2022/11/30 02:46:51;;;;;;;43.45;22.10;;;;;;;3.08;100.00;93038.13;5089815;28;20044;-73
2022/11/30 02:49:26;;;;;;;18.77;8.77;;;;;;;2.96;100.00;93035.16;5089277;28;20105;-73
2022/11/30 02:51:55;;;;;;;21.20;11.93;;;;;;;2.91;100.00;93061.03;5089334;28;20090;-73
2022/11/30 02:54:22;;;;;;;12.88;6.75;;;;;;;3.01;100.00;93050.66;5089748;28;20044;-73
2022/11/30 02:56:49;;;;;;;11.15;6.38;;;;;;;2.92;100.00;93064.38;5089423;28;20071;-73
2022/11/30 02:59:17;;;;;;;29.95;14.00;;;;;;;3.02;100.00;93067.47;5091854;28;20124;-74
2022/11/30 03:01:44;;;;;;;14.18;6.97;;;;;;;3.00;100.00;93063.53;5093357;28;20079;-73
2022/11/30 03:04:11;;;;;;;13.88;6.60;;;;;;;2.84;100.00;93072.81;5093342;28;20560;-73
2022/11/30 03:06:37;;;;;;;19.42;8.45;;;;;;;2.82;100.00;93048.56;5093689;28;20044;-72
2022/11/30 03:09:04;;;;;;;8.70;5.13;;;;;;;2.75;100.00;93071.25;5093220;28;20056;-73
2022/11/30 03:11:31;;;;;;;14.60;7.72;;;;;;;2.75;100.00;93053.50;5090727;28;20154;-72
2022/11/30 03:13:58;;;;;;;16.17;8.90;;;;;;;2.83;100.00;93060.28;5093205;28;20051;-73
2022/11/30 03:16:26;;;;;;;9.48;5.43;;;;;;;2.66;100.00;93073.84;5093656;28;20075;-72
2022/11/30 03:18:52;;;;;;;16.77;8.30;;;;;;;2.66;100.00;93045.13;5093268;28;20106;-73
2022/11/30 03:21:19;;;;;;;45.95;27.58;;;;;;;2.82;100.00;93066.31;5093489;28;20497;-73
2022/11/30 03:23:46;;;;;;;11.32;5.28;;;;;;;2.54;100.00;93062.44;5093088;28;20500;-72
2022/11/30 03:26:12;;;;;;;9.50;5.00;;;;;;;2.50;100.00;93051.84;5092825;28;20479;-72
2022/11/30 03:28:39;;;;;;;8.50;4.63;;;;;;;2.66;100.00;93062.88;5093198;28;20129;-72
2022/11/30 03:31:06;;;;;;;13.70;7.68;;;;;;;2.73;100.00;93056.19;5093246;28;20079;-72
2022/11/30 03:33:34;;;;;;;7.80;4.05;;;;;;;2.74;100.00;93054.47;5092755;28;20176;-72
2022/11/30 03:36:02;;;;;;;10.00;4.65;;;;;;;2.67;100.00;93055.13;5092954;28;20084;-72
2022/11/30 03:38:29;;;;;;;17.25;10.20;;;;;;;2.80;100.00;93062.22;5093019;28;20087;-73
2022/11/30 03:41:04;;;;;;;6.43;4.20;;;;;;;2.90;100.00;93073.88;5093215;28;20109;-71
2022/11/30 03:43:30;;;;;;;6.25;3.42;;;;;;;2.70;100.00;93065.88;5092740;28;20091;-72
2022/11/30 03:45:57;;;;;;;6.38;3.15;;;;;;;2.70;100.00;93063.34;5092900;28;20439;-73
2022/11/30 03:48:25;;;;;;;6.15;4.05;;;;;;;2.64;100.00;93060.50;5092937;28;20159;-73
2022/11/30 03:50:53;;;;;;;26.02;13.65;;;;;;;2.70;100.00;93074.28;5092617;28;20091;-72
2022/11/30 03:53:21;;;;;;;9.52;5.28;;;;;;;2.83;100.00;93076.31;5092456;28;20059;-72
2022/11/30 03:55:52;;;;;;;22.25;12.23;;;;;;;2.86;100.00;93067.56;5092783;28;20579;-72
2022/11/30 03:58:19;;;;;;;20.60;11.57;;;;;;;2.86;100.00;93067.56;5088576;28;20051;-72
2022/11/30 04:00:46;;;;;;;5.95;3.72;;;;;;;2.87;100.00;93061.53;5087655;28;20048;-72
2022/11/30 04:03:13;;;;;;;7.90;4.82;;;;;;;2.83;100.00;93068.69;5091579;28;20048;-71
2022/11/30 04:05:39;;;;;;;13.35;7.78;;;;;;;2.84;100.00;93064.41;5092470;28;20052;-72
2022/11/30 04:08:07;;;;;;;9.13;4.93;;;;;;;2.92;100.00;93080.38;5092162;28;20052;-72
2022/11/30 04:10:34;;;;;;;10.05;5.22;;;;;;;2.93;100.00;93071.81;5091215;28;20076;-70
2022/11/30 04:13:01;;;;;;;11.00;5.28;;;;;;;2.99;100.00;93080.50;5092325;28;20040;-73
2022/11/30 04:15:28;;;;;;;11.35;4.38;;;;;;;2.92;100.00;93082.91;5092159;28;20493;-72
2022/11/30 04:17:54;;;;;;;7.25;4.13;;;;;;;2.99;100.00;93085.59;5091697;28;20052;-73
2022/11/30 04:20:21;;;;;;;6.03;4.00;;;;;;;2.84;100.00;93077.88;5092124;28;20060;-73
2022/11/30 04:22:48;;;;;;;7.88;3.95;;;;;;;2.90;100.00;93087.38;5092044;28;20080;-72
2022/11/30 04:25:16;;;;;;;8.00;3.50;;;;;;;2.79;100.00;93082.66;5091567;28;20060;-73
2022/11/30 04:27:45;;;;;;;5.88;4.00;;;;;;;2.70;100.00;93074.28;5078462;28;20084;-73
2022/11/30 04:30:13;;;;;;;7.88;3.60;;;;;;;2.78;100.00;93089.47;5091486;28;20495;-73
2022/11/30 04:32:40;;;;;;;6.70;3.60;;;;;;;2.82;100.00;93089.94;5092031;28;20469;-72
2022/11/30 04:35:07;;;;;;;8.70;4.05;;;;;;;2.83;100.00;93085.66;5091979;28;20079;-73
2022/11/30 04:37:33;;;;;;;6.25;3.90;;;;;;;2.53;100.00;93076.09;5091178;28;20097;-73
2022/11/30 04:40:00;;;;;;;4.35;3.25;;;;;;;2.72;100.00;93087.59;5091569;28;20594;-73
2022/11/30 04:42:28;;;;;;;5.90;3.38;;;;;;;2.80;100.00;93079.97;5091771;28;20450;-74
2022/11/30 04:44:55;;;;;;;4.82;3.70;;;;;;;2.73;100.00;93085.84;5091600;28;20083;-73
2022/11/30 04:47:21;;;;;;;5.28;3.75;;;;;;;2.71;100.00;93090.28;5091634;28;20044;-73
2022/11/30 04:49:48;;;;;;;6.95;4.18;;;;;;;2.60;100.00;93083.84;5091934;28;20079;-72
2022/11/30 04:52:16;;;;;;;8.07;5.60;;;;;;;2.63;100.00;93068.28;5077959;28;20478;-72
2022/11/30 04:54:42;;;;;;;8.32;5.07;;;;;;;2.72;100.00;93089.34;5082641;28;20048;-72
2022/11/30 04:57:09;;;;;;;7.55;4.25;;;;;;;2.63;100.00;93086.84;5091468;28;20133;-72
2022/11/30 04:59:37;;;;;;;7.03;4.65;;;;;;;2.73;100.00;93099.31;5091270;28;20056;-72
2022/11/30 05:02:04;;;;;;;7.00;5.20;;;;;;;2.83;100.00;93088.19;5091091;28;20079;-74
2022/11/30 05:04:30;;;;;;;7.65;4.50;;;;;;;2.86;100.00;93091.19;5091330;28;20451;-71
2022/11/30 05:06:57;;;;;;;8.25;4.70;;;;;;;2.88;100.00;93091.78;5091263;28;20450;-72
2022/11/30 05:09:24;;;;;;;6.72;4.32;;;;;;;2.66;100.00;93089.06;5090861;28;20099;-72
2022/11/30 05:11:50;;;;;;;9.68;5.35;;;;;;;2.76;100.00;93090.59;5090725;28;20101;-72
2022/11/30 05:14:17;;;;;;;7.65;4.75;;;;;;;2.86;100.00;93093.72;5090909;28;20097;-72
2022/11/30 05:16:47;;;;;;;6.72;4.47;;;;;;;2.90;100.00;93091.63;5090975;28;20047;-72
2022/11/30 05:19:14;;;;;;;8.35;5.57;;;;;;;2.89;100.00;93082.44;5090469;28;20044;-72
2022/11/30 05:21:41;;;;;;;15.77;9.90;;;;;;;2.95;100.00;93086.88;5090592;28;20127;-72
2022/11/30 05:24:08;;;;;;;13.57;7.68;;;;;;;2.79;100.00;93075.81;5090897;28;20040;-73
2022/11/30 05:26:35;;;;;;;9.93;6.55;;;;;;;2.88;100.00;93086.72;5090454;28;20105;-73
2022/11/30 05:29:02;;;;;;;9.95;7.32;;;;;;;2.93;100.00;93084.47;5090681;28;20470;-73
2022/11/30 05:31:29;;;;;;;9.00;5.00;;;;;;;2.82;100.00;93092.47;5090768;28;20101;-73
2022/11/30 05:33:57;;;;;;;9.18;5.90;;;;;;;2.84;100.00;93082.97;5087480;28;20148;-73
2022/11/30 05:36:23;;;;;;;8.20;4.80;;;;;;;2.91;100.00;93085.59;5074563;28;20577;-72
2022/11/30 05:38:50;;;;;;;9.98;4.47;;;;;;;2.88;100.00;93093.56;5090098;28;20079;-73
2022/11/30 05:41:17;;;;;;;7.00;4.72;;;;;;;2.85;100.00;93087.06;5090098;28;20040;-73
2022/11/30 05:43:44;;;;;;;8.18;4.35;;;;;;;2.94;100.00;93090.38;5090527;28;20461;-73
2022/11/30 05:46:10;;;;;;;4.85;4.00;;;;;;;2.82;100.00;93086.63;5090010;28;20105;-72
2022/11/30 05:48:38;;;;;;;6.80;4.63;;;;;;;2.82;100.00;93095.00;5090534;28;20105;-72
2022/11/30 05:51:07;;;;;;;7.30;4.43;;;;;;;2.84;100.00;93095.66;5090290;28;20162;-72
2022/11/30 05:53:34;;;;;;;6.82;4.60;;;;;;;2.84;100.00;93077.09;5089578;28;20052;-72
2022/11/30 05:56:03;;;;;;;8.35;3.95;;;;;;;2.91;100.00;93104.16;5090241;28;20080;-72
2022/11/30 05:58:29;;;;;;;7.50;3.70;;;;;;;2.78;100.00;93106.44;5090189;28;20420;-72
2022/11/30 06:00:56;;;;;;;11.27;4.47;;;;;;;2.88;100.00;93109.56;5089799;28;20476;-72
2022/11/30 06:03:23;;;;;;;7.95;4.95;;;;;;;2.77;100.00;93097.22;5089789;28;20101;-72
2022/11/30 06:05:51;;;;;;;9.35;5.30;;;;;;;2.83;100.00;93113.56;5089722;28;20541;-72
2022/11/30 06:08:19;;;;;;;8.85;5.90;;;;;;;2.93;100.00;93104.78;5089767;28;20559;-72
2022/11/30 06:10:46;;;;;;;7.07;4.65;;;;;;;2.86;100.00;93116.56;5090123;28;20048;-72
2022/11/30 06:13:13;;;;;;;10.23;6.65;;;;;;;2.78;100.00;93117.38;5089717;28;20470;-72
2022/11/30 06:15:40;;;;;;;7.45;5.47;;;;;;;2.76;100.00;93121.03;5089997;28;20148;-72
2022/11/30 06:18:08;;;;;;;10.20;5.60;;;;;;;2.72;100.00;93112.97;5089820;28;20044;-73
2022/11/30 06:20:35;;;;;;;8.80;5.60;;;;;;;2.92;100.00;93122.72;5090004;28;20144;-72
2022/11/30 06:23:01;;;;;;;13.50;7.95;;;;;;;2.75;100.00;93112.63;5090100;28;20568;-73
2022/11/30 06:25:29;;;;;;;12.23;8.43;;;;;;;2.89;100.00;93120.50;5089917;28;20130;-73
2022/11/30 06:27:56;;;;;;;15.43;8.23;;;;;;;3.05;100.00;93120.44;5090005;28;20129;-72
2022/11/30 06:30:23;;;;;;;17.15;8.45;;;;;;;3.19;100.00;93121.50;5089608;28;20048;-72
2022/11/30 06:32:51;;;;;;;13.05;8.40;;;;;;;3.15;100.00;93105.00;5089391;28;20438;-72
2022/11/30 06:35:18;;;;;;;11.57;7.95;;;;;;;3.31;100.00;93134.59;5089604;28;20040;-72
2022/11/30 06:37:45;;;;;;;12.38;7.00;;;;;;;3.44;100.00;93136.59;5089751;28;20110;-72
2022/11/30 06:40:13;;;;;;;7.78;5.15;;;;;;;3.56;100.00;93143.84;5089695;28;20081;-73
2022/11/30 06:42:41;;;;;;;8.35;4.97;;;;;;;3.58;100.00;93124.13;5087652;28;20128;-72
2022/11/30 06:45:09;;;;;;;6.97;5.25;;;;;;;3.71;100.00;93143.91;5088080;28;20052;-72
2022/11/30 06:47:36;;;;;;;8.95;6.72;;;;;;;3.83;100.00;93145.09;5088480;28;20052;-72
2022/11/30 06:50:03;;;;;;;7.40;5.78;;;;;;;3.67;100.00;93147.75;5089264;28;20044;-73
2022/11/30 06:52:30;;;;;;;6.60;4.72;;;;;;;3.71;100.00;93149.00;5089213;28;20052;-72
2022/11/30 06:54:57;;;;;;;7.85;5.70;;;;;;;3.52;100.00;93148.44;5087645;28;20056;-72
2022/11/30 06:57:26;;;;;;;5.88;4.70;;;;;;;3.59;100.00;93143.50;5076628;28;20040;-72
2022/11/30 06:59:55;;;;;;;6.10;5.15;;;;;;;3.43;100.00;93113.91;5089089;28;20048;-73
2022/11/30 07:02:21;;;;;;;6.50;4.88;;;;;;;3.59;100.00;93157.00;5075425;28;20515;-73
2022/11/30 07:04:48;;;;;;;6.35;4.80;;;;;;;3.72;100.00;93145.47;5089089;28;20048;-73
2022/11/30 07:07:15;;;;;;;7.40;6.13;;;;;;;3.56;100.00;93159.84;5088808;28;20080;-72
2022/11/30 07:09:41;;;;;;;7.25;5.10;;;;;;;3.41;100.00;93152.16;5089035;28;20083;-73
2022/11/30 07:12:09;;;;;;;10.65;5.78;;;;;;;3.51;100.00;93146.09;5089279;28;20052;-73
2022/11/30 07:14:35;;;;;;;7.45;5.25;;;;;;;3.55;100.00;93160.81;5089229;28;20088;-73
2022/11/30 07:17:04;;;;;;;6.30;5.25;;;;;;;3.52;100.00;93143.38;5089613;28;20097;-72
2022/11/30 07:19:31;;;;;;;8.70;5.47;;;;;;;3.69;100.00;93153.44;5089361;28;20132;-73
2022/11/30 07:21:58;;;;;;;8.00;5.60;;;;;;;3.72;100.00;93145.47;5089016;28;20577;-73
2022/11/30 07:27:08;;;;;;;7.35;5.30;;;;;;;3.75;100.00;93147.66;5088952;28;20099;-72
2022/11/30 07:29:35;;;;;;;11.50;6.55;;;;;;;3.79;100.00;93151.47;5089226;28;20105;-73
2022/11/30 07:32:03;;;;;;;8.27;5.95;;;;;;;3.76;100.00;93154.34;5088631;28;20102;-73
2022/11/30 07:34:30;;;;;;;6.55;5.35;;;;;;;3.84;100.00;93154.28;5088445;28;20048;-73
2022/11/30 07:36:57;;;;;;;8.05;5.38;;;;;;;3.88;100.00;93153.00;5088731;28;20067;-73
2022/11/30 07:39:24;;;;;;;6.95;4.93;;;;;;;4.06;100.00;93149.38;5088831;28;20044;-73
2022/11/30 07:41:50;;;;;;;6.20;4.78;;;;;;;4.10;100.00;93145.53;5088838;28;20063;-73
2022/11/30 07:44:17;;;;;;;9.57;7.15;;;;;;;4.11;100.00;93152.19;5089218;28;20048;-73
2022/11/30 07:46:44;;;;;;;7.22;5.72;;;;;;;4.22;100.00;93158.59;5091553;28;20044;-73
2022/11/30 07:49:12;;;;;;;9.45;6.93;;;;;;;4.25;100.00;93160.00;5092752;28;20048;-73
2022/11/30 07:51:38;;;;;;;9.93;6.50;;;;;;;4.21;100.00;93154.50;5092406;28;20040;-73
2022/11/30 07:54:06;;;;;;;8.70;5.45;;;;;;;4.46;100.00;93158.56;5092358;28;20458;-73
2022/11/30 07:56:32;;;;;;;14.85;9.43;;;;;;;4.65;100.00;93163.19;5092093;28;20670;-73
2022/11/30 07:59:01;;;;;;;15.60;8.85;;;;;;;4.79;100.00;93165.91;5092030;28;20075;-73
2022/11/30 08:01:30;;;;;;;7.65;4.78;;;;;;;4.79;100.00;93169.25;5092248;28;20481;-73
2022/11/30 08:03:57;;;;;;;6.47;4.10;;;;;;;4.69;100.00;93168.69;5092393;28;20105;-73
2022/11/30 08:06:27;;;;;;;6.88;4.43;;;;;;;4.73;100.00;93169.13;5092323;28;20047;-73
2022/11/30 08:08:57;;;;;;;5.85;4.68;;;;;;;4.58;100.00;93169.91;5091661;28;20577;-72
2022/11/30 08:11:26;;;;;;;7.47;4.43;;;;;;;4.77;100.00;93171.16;5092358;28;20442;-72
2022/11/30 08:13:53;;;;;;;6.80;4.25;;;;;;;4.79;100.00;93171.78;5091803;28;20056;-72
2022/11/30 08:16:21;;;;;;;5.25;4.50;;;;;;;4.78;100.00;93159.22;5092123;28;20048;-73
2022/11/30 08:18:49;;;;;;;8.10;4.90;;;;;;;5.06;100.00;93173.88;5077079;28;20047;-73
2022/11/30 08:21:17;;;;;;;7.55;4.63;;;;;;;5.07;100.00;93167.81;5091934;28;20181;-73
2022/11/30 08:23:47;;;;;;;8.85;5.05;;;;;;;5.02;100.00;93178.53;5092009;28;20078;-73
2022/11/30 08:26:16;;;;;;;9.10;5.70;;;;;;;5.14;100.00;93167.91;5091609;28;20109;-73
2022/11/30 08:28:44;;;;;;;9.15;5.70;;;;;;;5.29;100.00;93178.09;5090800;28;20048;-73
2022/11/30 08:31:14;;;;;;;11.70;5.90;;;;;;;5.37;100.00;93188.16;5091661;28;20083;-73
2022/11/30 08:33:40;;;;;;;10.27;6.65;;;;;;;5.52;100.00;93192.47;5092069;28;20052;-73
2022/11/30 08:36:08;;;;;;;7.60;4.60;;;;;;;5.57;100.00;93205.44;5091683;28;20052;-73
2022/11/30 08:38:35;;;;;;;4.68;2.70;;;;;;;5.46;100.00;93197.28;5090106;28;20093;-73
2022/11/30 08:41:05;;;;;;;8.25;5.50;;;;;;;5.29;100.00;93198.47;5091886;28;20048;-72
2022/11/30 08:43:32;;;;;;;9.32;4.85;;;;;;;5.12;100.00;93196.09;5091433;28;20078;-73
2022/11/30 08:45:59;;;;;;;5.78;3.67;;;;;;;5.23;100.00;93192.31;5091599;28;20072;-72
2022/11/30 08:48:25;;;;;;;6.28;3.97;;;;;;;5.20;100.00;93195.22;5076165;28;20091;-73
2022/11/30 08:50:52;;;;;;;5.20;4.03;;;;;;;5.23;100.00;93194.84;5088251;28;20052;-72
2022/11/30 08:53:19;;;;;;;13.18;8.63;;;;;;;4.93;100.00;93203.31;5091441;28;20048;-72
2022/11/30 08:55:55;;;;;;;7.60;5.18;;;;;;;5.07;100.00;93194.09;5076135;28;20040;-72
2022/11/30 08:58:23;;;;;;;10.35;6.10;;;;;;;5.12;100.00;93195.28;5090831;28;20105;-72
2022/11/30 09:00:50;;;;;;;7.15;5.35;;;;;;;5.12;100.00;93185.91;5085183;28;20451;-72
2022/11/30 09:03:16;;;;;;;5.28;3.72;;;;;;;4.59;100.00;93189.31;5083026;28;20109;-72
2022/11/30 09:05:43;;;;;;;19.50;17.42;;;;;;;4.24;100.00;93171.97;5090900;28;20504;-73
2022/11/30 09:08:10;;;;;;;5.78;4.00;;;;;;;4.47;100.00;93193.22;5090871;28;20105;-72
2022/11/30 09:10:36;;;;;;;5.18;3.28;;;;;;;4.19;100.00;93198.84;5090803;28;20087;-72
2022/11/30 09:13:03;;;;;;;4.65;2.70;;;;;;;4.18;100.00;93199.81;5090698;28;20487;-72
2022/11/30 09:15:32;;;;;;;4.82;3.50;;;;;;;4.26;100.00;93200.53;5090868;28;20060;-73
2022/11/30 09:17:58;;;;;;;5.00;3.78;;;;;;;4.34;100.00;93206.50;5090576;28;20125;-73
2022/11/30 09:20:25;;;;;;;5.55;3.58;;;;;;;4.46;100.00;93224.72;5090739;28;20512;-73
2022/11/30 09:22:52;;;;;;;7.60;5.63;;;;;;;4.29;100.00;93194.31;5090864;28;20445;-73
2022/11/30 09:25:18;;;;;;;4.60;4.20;;;;;;;4.58;100.00;93215.69;5090991;28;20080;-73
2022/11/30 09:27:45;;;;;;;12.43;6.75;;;;;;;4.46;100.00;93205.16;5090793;28;20105;-73
2022/11/30 09:30:13;;;;;;;20.92;15.40;;;;;;;4.36;100.00;93215.56;5090842;28;20105;-72
2022/11/30 09:32:41;;;;;;;5.97;4.50;;;;;;;4.16;100.00;93206.81;5090891;28;20051;-73
2022/11/30 09:35:08;;;;;;;11.82;8.82;;;;;;;4.31;100.00;93199.25;5076448;28;20134;-72
2022/11/30 09:37:34;;;;;;;5.15;3.33;;;;;;;4.22;100.00;93201.06;5090503;28;20048;-72
2022/11/30 09:40:01;;;;;;;6.90;5.40;;;;;;;4.36;100.00;93185.03;5090261;28;20573;-73
2022/11/30 09:42:51;;;;;;;3.65;2.78;;;;;;;4.28;100.00;93178.28;5090486;28;20105;-73
2022/11/30 09:45:23;;;;;;;7.90;5.18;;;;;;;4.55;100.00;93177.91;5089957;28;20488;-73
2022/11/30 09:48:23;;;;;;;13.00;9.95;;;;;;;4.44;100.00;93165.59;5090258;28;20129;-73
2022/11/30 09:50:51;;;;;;;6.55;5.28;;;;;;;4.70;100.00;93174.56;5090182;28;20404;-73
2022/11/30 09:53:24;;;;;;;6.47;5.00;;;;;;;4.80;100.00;93173.38;5090603;28;20060;-73
2022/11/30 09:55:54;;;;;;;10.30;8.60;;;;;;;4.95;100.00;93175.09;5070004;28;20045;-72
2022/11/30 09:58:30;;;;;;;11.00;9.65;;;;;;;4.95;100.00;93177.66;5073085;28;20048;-74
2022/11/30 10:00:57;;;;;;;6.05;4.15;;;;;;;5.11;100.00;93165.72;5076543;28;20106;-72
2022/11/30 10:03:25;;;;;;;5.95;4.25;;;;;;;5.06;100.00;93173.88;5076196;28;20080;-72
2022/11/30 10:06:04;;;;;;;8.23;6.38;;;;;;;5.13;100.00;93158.72;5077254;28;20059;-72
2022/11/30 10:08:40;;;;;;;5.30;4.07;;;;;;;5.20;100.00;93157.03;5074875;28;20056;-72
2022/11/30 10:11:38;;;;;;;8.32;6.35;;;;;;;5.37;100.00;93155.03;5070308;28;20044;-72
2022/11/30 10:14:21;;;;;;;7.20;4.93;;;;;;;5.51;100.00;93152.66;5074990;28;20058;-72
2022/11/30 10:17:01;;;;;;;8.30;5.80;;;;;;;5.40;100.00;93156.44;5090667;28;20051;-72
2022/11/30 10:19:47;;;;;;;6.55;4.53;;;;;;;5.59;100.00;93161.00;5089799;28;20048;-72
2022/11/30 10:22:22;;;;;;;5.97;3.85;;;;;;;5.13;100.00;93158.72;5076748;28;20442;-72
2022/11/30 10:25:03;;;;;;;11.45;7.55;;;;;;;5.00;100.00;93144.81;5089688;28;20051;-72
2022/11/30 10:27:40;;;;;;;12.02;7.45;;;;;;;4.91;100.00;93141.59;5089739;28;20054;-72
2022/11/30 10:30:14;;;;;;;6.05;4.40;;;;;;;4.93;100.00;93139.66;5089688;28;20573;-72
2022/11/30 10:32:44;;;;;;;14.40;10.15;;;;;;;4.81;100.00;93136.75;5089517;28;20131;-72
2022/11/30 10:35:22;;;;;;;38.63;24.05;;;;;;;4.73;100.00;93143.69;5076689;28;20051;-72
2022/11/30 10:37:51;;;;;;;17.00;11.35;;;;;;;4.91;100.00;93126.31;5089366;28;20048;-72
2022/11/30 10:40:23;;;;;;;11.65;7.50;;;;;;;5.17;100.00;93142.88;5089272;28;20468;-72
2022/11/30 10:42:59;;;;;;;7.60;5.25;;;;;;;4.75;100.00;93142.56;5089945;28;20052;-72
2022/11/30 10:45:29;;;;;;;6.13;4.90;;;;;;;4.93;100.00;93134.56;5089749;28;20097;-72
2022/11/30 10:48:03;;;;;;;9.90;6.82;;;;;;;4.94;100.00;93131.06;5083748;28;20087;-72
2022/11/30 10:50:31;;;;;;;32.25;20.10;;;;;;;4.92;100.00;93117.69;5082286;28;20052;-72
2022/11/30 10:53:00;;;;;;;41.08;24.80;;;;;;;5.02;100.00;93125.09;5078335;28;20052;-72
2022/11/30 10:55:30;;;;;;;50.00;29.88;;;;;;;4.92;100.00;93116.94;5079069;28;20517;-72
2022/11/30 10:58:09;;;;;;;17.38;11.10;;;;;;;5.00;100.00;93131.31;5080338;28;20141;-72
2022/11/30 11:00:36;;;;;;;9.82;6.53;;;;;;;4.80;100.00;93119.13;5081918;28;20491;-72
2022/11/30 11:03:03;;;;;;;9.73;6.40;;;;;;;4.78;100.00;93121.06;5072549;28;20083;-72
2022/11/30 11:05:32;;;;;;;9.07;5.15;;;;;;;4.75;100.00;93104.38;5071985;28;20083;-72
2022/11/30 11:08:00;;;;;;;5.78;4.80;;;;;;;4.53;100.00;93119.56;5078733;28;20119;-72
2022/11/30 11:10:35;;;;;;;7.90;5.80;;;;;;;4.47;100.00;93101.66;5076882;28;20053;-72
2022/11/30 11:13:02;;;;;;;7.35;5.28;;;;;;;4.50;100.00;93112.25;5077301;28;20098;-72
2022/11/30 11:15:30;;;;;;;7.85;5.50;;;;;;;4.55;100.00;93109.22;5077198;28;20101;-72
2022/11/30 11:18:20;;;;;;;12.40;7.45;;;;;;;4.51;100.00;93113.88;5076371;28;20109;-71
2022/11/30 11:20:49;;;;;;;46.33;26.27;;;;;;;4.41;100.00;93119.19;5078986;28;20499;-72
2022/11/30 11:23:22;;;;;;;8.50;6.90;;;;;;;4.41;100.00;93091.22;5078219;28;20447;-72
2022/11/30 11:25:56;;;;;;;10.52;7.85;;;;;;;4.75;100.00;93118.84;5089686;28;20578;-72
2022/11/30 11:28:24;;;;;;;7.68;6.38;;;;;;;4.92;100.00;93124.56;5091652;28;20056;-72
2022/11/30 11:30:53;;;;;;;6.38;5.65;;;;;;;5.10;100.00;93120.84;5093159;28;20453;-72
2022/11/30 11:33:23;;;;;;;5.75;4.47;;;;;;;5.12;100.00;93126.56;5090957;28;20048;-72
2022/11/30 11:35:53;;;;;;;8.50;6.18;;;;;;;5.19;100.00;93123.13;5090988;28;20051;-72
2022/11/30 11:38:25;;;;;;;6.30;4.90;;;;;;;5.21;100.00;93116.09;5091887;28;20059;-72
2022/11/30 11:40:56;;;;;;;6.47;5.00;;;;;;;5.28;100.00;93117.94;5092514;28;20567;-72